sensor_id;sensor_type;location;lat;lon;timestamp;pressure;altitude;pressure_sealevel;temperature;humidity
21821;BME280;11073;48.586;12.066;2022-09-19T00:01:58;96119.31;;;9.77;75.87
21821;BME280;11073;48.586;12.066;2022-09-19T00:04:29;96136.88;;;9.63;75.95
21821;BME280;11073;48.586;12.066;2022-09-19T00:07:00;96146.78;;;9.57;75.71
21821;BME280;11073;48.586;12.066;2022-09-19T00:09:30;96139.88;;;9.50;75.38
21821;BME280;11073;48.586;12.066;2022-09-19T00:12:00;96134.84;;;9.42;75.19
21821;BME280;11073;48.586;12.066;2022-09-19T00:14:33;96132.72;;;9.32;75.16
21821;BME280;11073;48.586;12.066;2022-09-19T00:17:06;96137.19;;;9.26;75.18
21821;BME280;11073;48.586;12.066;2022-09-19T00:19:36;96124.03;;;9.18;75.07
21821;BME280;11073;48.586;12.066;2022-09-19T00:22:05;96137.19;;;9.26;75.14
21821;BME280;11073;48.586;12.066;2022-09-19T00:24:34;96137.19;;;9.26;75.08
21821;BME280;11073;48.586;12.066;2022-09-19T00:27:18;96140.38;;;9.23;74.91
21821;BME280;11073;48.586;12.066;2022-09-19T00:29:48;96139.56;;;9.23;74.81
21821;BME280;11073;48.586;12.066;2022-09-19T00:32:19;96140.13;;;9.25;74.70
21821;BME280;11073;48.586;12.066;2022-09-19T00:34:50;96138.25;;;9.25;74.71
21821;BME280;11073;48.586;12.066;2022-09-19T00:37:23;96138.72;;;9.22;74.80
21821;BME280;11073;48.586;12.066;2022-09-19T00:39:52;96148.81;;;9.27;74.70
21821;BME280;11073;48.586;12.066;2022-09-19T00:42:24;96146.84;;;9.22;74.68
21821;BME280;11073;48.586;12.066;2022-09-19T00:44:58;96146.47;;;9.19;74.47
21821;BME280;11073;48.586;12.066;2022-09-19T00:47:34;96144.63;;;9.07;74.29
21821;BME280;11073;48.586;12.066;2022-09-19T00:50:12;96144.63;;;9.07;74.36
21821;BME280;11073;48.586;12.066;2022-09-19T00:52:45;96139.78;;;9.09;74.42
21821;BME280;11073;48.586;12.066;2022-09-19T00:55:16;96155.66;;;9.06;74.21
21821;BME280;11073;48.586;12.066;2022-09-19T00:58:00;96154.84;;;9.05;74.28
21821;BME280;11073;48.586;12.066;2022-09-19T01:00:30;96156.13;;;9.03;73.99
21821;BME280;11073;48.586;12.066;2022-09-19T01:03:04;96160.00;;;9.07;74.20
21821;BME280;11073;48.586;12.066;2022-09-19T01:05:47;96158.38;;;9.06;74.05
21821;BME280;11073;48.586;12.066;2022-09-19T01:11:27;96152.25;;;8.99;73.97
21821;BME280;11073;48.586;12.066;2022-09-19T01:14:03;96153.53;;;8.96;73.87
21821;BME280;11073;48.586;12.066;2022-09-19T01:16:40;96154.34;;;8.97;74.06
21821;BME280;11073;48.586;12.066;2022-09-19T01:19:27;96163.28;;;8.97;73.77
21821;BME280;11073;48.586;12.066;2022-09-19T01:22:08;96167.41;;;9.00;73.91
21821;BME280;11073;48.586;12.066;2022-09-19T01:24:56;96167.16;;;9.01;73.77
21821;BME280;11073;48.586;12.066;2022-09-19T01:27:39;96168.47;;;8.99;73.68
21821;BME280;11073;48.586;12.066;2022-09-19T01:30:15;96170.69;;;9.02;73.57
21821;BME280;11073;48.586;12.066;2022-09-19T01:32:50;96155.78;;;8.99;73.50
21821;BME280;11073;48.586;12.066;2022-09-19T01:35:24;96163.16;;;9.04;73.33
21821;BME280;11073;48.586;12.066;2022-09-19T01:37:58;96177.13;;;9.01;73.36
21821;BME280;11073;48.586;12.066;2022-09-19T01:40:32;96180.91;;;9.00;73.42
21821;BME280;11073;48.586;12.066;2022-09-19T01:43:10;96185.13;;;8.96;73.36
21821;BME280;11073;48.586;12.066;2022-09-19T01:45:41;96174.66;;;8.88;73.27
21821;BME280;11073;48.586;12.066;2022-09-19T01:48:14;96187.34;;;8.87;73.31
21821;BME280;11073;48.586;12.066;2022-09-19T01:51:00;96179.72;;;8.84;73.20
21821;BME280;11073;48.586;12.066;2022-09-19T01:53:50;96184.75;;;8.80;73.09
21821;BME280;11073;48.586;12.066;2022-09-19T01:56:56;96186.63;;;8.80;73.01
21821;BME280;11073;48.586;12.066;2022-09-19T01:59:40;96187.31;;;8.75;72.97
21821;BME280;11073;48.586;12.066;2022-09-19T02:02:25;96188.84;;;8.71;73.07
21821;BME280;11073;48.586;12.066;2022-09-19T02:05:08;96196.59;;;8.68;73.02
21821;BME280;11073;48.586;12.066;2022-09-19T02:07:44;96199.53;;;8.66;73.20
21821;BME280;11073;48.586;12.066;2022-09-19T02:10:19;96200.56;;;8.65;73.27
21821;BME280;11073;48.586;12.066;2022-09-19T02:12:52;96203.13;;;8.60;73.17
21821;BME280;11073;48.586;12.066;2022-09-19T02:15:39;96188.34;;;8.51;73.05
21821;BME280;11073;48.586;12.066;2022-09-19T02:18:16;96192.34;;;8.48;73.25
21821;BME280;11073;48.586;12.066;2022-09-19T02:20:55;96200.28;;;8.43;73.11
21821;BME280;11073;48.586;12.066;2022-09-19T02:23:29;96195.81;;;8.37;73.29
21821;BME280;11073;48.586;12.066;2022-09-19T02:26:02;96196.88;;;8.36;73.38
21821;BME280;11073;48.586;12.066;2022-09-19T02:28:37;96202.03;;;8.38;73.28
21821;BME280;11073;48.586;12.066;2022-09-19T02:31:13;96200.38;;;8.37;73.33
21821;BME280;11073;48.586;12.066;2022-09-19T02:33:43;96203.31;;;8.35;73.47
21821;BME280;11073;48.586;12.066;2022-09-19T02:36:22;96206.03;;;8.35;73.37
21821;BME280;11073;48.586;12.066;2022-09-19T02:38:59;96216.19;;;8.33;73.42
21821;BME280;11073;48.586;12.066;2022-09-19T02:41:58;96205.50;;;8.26;73.30
21821;BME280;11073;48.586;12.066;2022-09-19T02:44:34;96208.19;;;8.26;73.48
21821;BME280;11073;48.586;12.066;2022-09-19T02:47:11;96208.63;;;8.23;73.55
21821;BME280;11073;48.586;12.066;2022-09-19T02:49:47;96206.84;;;8.17;73.57
21821;BME280;11073;48.586;12.066;2022-09-19T02:52:21;96209.34;;;8.19;73.49
21821;BME280;11073;48.586;12.066;2022-09-19T02:54:56;96207.47;;;8.19;73.72
21821;BME280;11073;48.586;12.066;2022-09-19T02:57:30;96212.63;;;8.21;73.64
21821;BME280;11073;48.586;12.066;2022-09-19T03:00:05;96214.75;;;8.19;73.64
21821;BME280;11073;48.586;12.066;2022-09-19T03:02:41;96211.19;;;8.18;73.73
21821;BME280;11073;48.586;12.066;2022-09-19T03:05:16;96214.75;;;8.19;73.66
21821;BME280;11073;48.586;12.066;2022-09-19T03:07:54;96222.59;;;8.20;73.69
21821;BME280;11073;48.586;12.066;2022-09-19T03:10:27;96231.03;;;8.24;74.01
21821;BME280;11073;48.586;12.066;2022-09-19T03:13:19;96220.47;;;8.22;73.88
21821;BME280;11073;48.586;12.066;2022-09-19T03:15:59;96221.31;;;8.23;73.92
21821;BME280;11073;48.586;12.066;2022-09-19T03:18:36;96225.88;;;8.22;73.85
21821;BME280;11073;48.586;12.066;2022-09-19T03:21:10;96223.75;;;8.24;73.94
21821;BME280;11073;48.586;12.066;2022-09-19T03:23:41;96229.97;;;8.25;74.02
21821;BME280;11073;48.586;12.066;2022-09-19T03:26:18;96226.03;;;8.27;74.14
21821;BME280;11073;48.586;12.066;2022-09-19T03:28:49;96232.81;;;8.30;73.91
21821;BME280;11073;48.586;12.066;2022-09-19T03:31:18;96229.88;;;8.32;74.08
21821;BME280;11073;48.586;12.066;2022-09-19T03:33:48;96232.59;;;8.32;73.95
21821;BME280;11073;48.586;12.066;2022-09-19T03:36:20;96230.28;;;8.35;74.28
21821;BME280;11073;48.586;12.066;2022-09-19T03:38:50;96231.53;;;8.33;74.30
21821;BME280;11073;48.586;12.066;2022-09-19T03:41:23;96236.00;;;8.27;74.21
21821;BME280;11073;48.586;12.066;2022-09-19T03:43:52;96239.28;;;8.29;74.38
21821;BME280;11073;48.586;12.066;2022-09-19T03:46:22;96236.91;;;8.33;74.50
21821;BME280;11073;48.586;12.066;2022-09-19T03:48:59;96250.81;;;8.36;74.67
21821;BME280;11073;48.586;12.066;2022-09-19T03:51:31;96251.16;;;8.40;74.68
21821;BME280;11073;48.586;12.066;2022-09-19T03:54:04;96263.25;;;8.37;74.62
21821;BME280;11073;48.586;12.066;2022-09-19T03:56:39;96260.31;;;8.39;74.68
21821;BME280;11073;48.586;12.066;2022-09-19T03:59:09;96265.72;;;8.39;74.73
21821;BME280;11073;48.586;12.066;2022-09-19T04:01:40;96267.97;;;8.42;74.63
21821;BME280;11073;48.586;12.066;2022-09-19T04:04:09;96258.00;;;8.42;74.66
21821;BME280;11073;48.586;12.066;2022-09-19T04:06:48;96271.25;;;8.44;74.89
21821;BME280;11073;48.586;12.066;2022-09-19T04:09:20;96263.41;;;8.42;74.79
21821;BME280;11073;48.586;12.066;2022-09-19T04:11:52;96275.84;;;8.43;74.77
21821;BME280;11073;48.586;12.066;2022-09-19T04:14:22;96272.31;;;8.43;74.79
21821;BME280;11073;48.586;12.066;2022-09-19T04:16:51;96266.34;;;8.41;74.86
21821;BME280;11073;48.586;12.066;2022-09-19T04:19:41;96263.03;;;8.39;75.00
21821;BME280;11073;48.586;12.066;2022-09-19T04:22:27;96269.22;;;8.39;74.94
21821;BME280;11073;48.586;12.066;2022-09-19T04:25:17;96255.97;;;8.38;75.04
21821;BME280;11073;48.586;12.066;2022-09-19T04:28:12;96277.56;;;8.38;75.06
21821;BME280;11073;48.586;12.066;2022-09-19T04:30:41;96281.13;;;8.32;74.93
21821;BME280;11073;48.586;12.066;2022-09-19T04:33:11;96293.16;;;8.36;75.17
21821;BME280;11073;48.586;12.066;2022-09-19T04:35:41;96300.44;;;8.35;75.21
21821;BME280;11073;48.586;12.066;2022-09-19T04:38:15;96299.13;;;8.38;75.28
21821;BME280;11073;48.586;12.066;2022-09-19T04:40:50;96293.16;;;8.36;75.35
21821;BME280;11073;48.586;12.066;2022-09-19T04:43:26;96295.19;;;8.40;75.39
21821;BME280;11073;48.586;12.066;2022-09-19T04:46:06;96304.44;;;8.44;75.46
21821;BME280;11073;48.586;12.066;2022-09-19T04:48:44;96314.41;;;8.44;75.50
21821;BME280;11073;48.586;12.066;2022-09-19T04:51:15;96312.94;;;8.48;75.44
21821;BME280;11073;48.586;12.066;2022-09-19T04:53:45;96302.34;;;8.46;75.38
21821;BME280;11073;48.586;12.066;2022-09-19T04:56:14;96297.03;;;8.40;75.36
21821;BME280;11073;48.586;12.066;2022-09-19T04:58:45;96327.25;;;8.48;75.42
21821;BME280;11073;48.586;12.066;2022-09-19T05:01:14;96326.78;;;8.51;75.44
21821;BME280;11073;48.586;12.066;2022-09-19T05:03:44;96319.06;;;8.55;75.45
21821;BME280;11073;48.586;12.066;2022-09-19T05:06:13;96319.72;;;8.50;75.43
21821;BME280;11073;48.586;12.066;2022-09-19T05:08:43;96323.41;;;8.56;75.41
21821;BME280;11073;48.586;12.066;2022-09-19T05:11:29;96327.16;;;8.55;75.34
21821;BME280;11073;48.586;12.066;2022-09-19T05:13:57;96333.13;;;8.57;75.29
21821;BME280;11073;48.586;12.066;2022-09-19T05:16:28;96332.06;;;8.58;75.46
21821;BME280;11073;48.586;12.066;2022-09-19T05:18:59;96344.28;;;8.61;75.56
21821;BME280;11073;48.586;12.066;2022-09-19T05:21:28;96341.81;;;8.59;75.62
21821;BME280;11073;48.586;12.066;2022-09-19T05:23:59;96347.81;;;8.61;75.65
21821;BME280;11073;48.586;12.066;2022-09-19T05:26:30;96349.09;;;8.59;75.64
21821;BME280;11073;48.586;12.066;2022-09-19T05:29:07;96350.38;;;8.56;75.87
21821;BME280;11073;48.586;12.066;2022-09-19T05:31:46;96355.78;;;8.56;75.77
21821;BME280;11073;48.586;12.066;2022-09-19T05:34:23;96365.94;;;8.54;76.12
21821;BME280;11073;48.586;12.066;2022-09-19T05:36:52;96362.44;;;8.53;76.22
21821;BME280;11073;48.586;12.066;2022-09-19T05:39:40;96363.16;;;8.61;76.36
21821;BME280;11073;48.586;12.066;2022-09-19T05:42:40;96374.34;;;8.64;76.50
21821;BME280;11073;48.586;12.066;2022-09-19T05:45:10;96375.41;;;8.63;76.49
21821;BME280;11073;48.586;12.066;2022-09-19T05:47:39;96392.19;;;8.65;76.37
21821;BME280;11073;48.586;12.066;2022-09-19T05:50:09;96389.63;;;8.70;76.64
21821;BME280;11073;48.586;12.066;2022-09-19T05:52:39;96390.22;;;8.72;76.56
21821;BME280;11073;48.586;12.066;2022-09-19T05:55:28;96395.63;;;8.72;76.83
21821;BME280;11073;48.586;12.066;2022-09-19T05:58:17;96401.38;;;8.76;76.59
21821;BME280;11073;48.586;12.066;2022-09-19T06:00:47;96402.00;;;8.78;76.55
21821;BME280;11073;48.586;12.066;2022-09-19T06:03:16;96407.81;;;8.75;76.42
21821;BME280;11073;48.586;12.066;2022-09-19T06:05:47;96415.72;;;8.76;76.85
21821;BME280;11073;48.586;12.066;2022-09-19T06:08:19;96415.25;;;8.79;76.57
21821;BME280;11073;48.586;12.066;2022-09-19T06:10:51;96416.91;;;8.80;76.72
21821;BME280;11073;48.586;12.066;2022-09-19T06:13:24;96413.59;;;8.78;76.72
21821;BME280;11073;48.586;12.066;2022-09-19T06:16:14;96418.84;;;8.73;76.50
21821;BME280;11073;48.586;12.066;2022-09-19T06:19:00;96426.53;;;8.76;76.79
21821;BME280;11073;48.586;12.066;2022-09-19T06:21:30;96426.53;;;8.76;76.67
21821;BME280;11073;48.586;12.066;2022-09-19T06:23:59;96426.28;;;8.78;76.72
21821;BME280;11073;48.586;12.066;2022-09-19T06:26:29;96424.16;;;8.80;76.88
21821;BME280;11073;48.586;12.066;2022-09-19T06:28:59;96437.66;;;8.80;77.13
21821;BME280;11073;48.586;12.066;2022-09-19T06:31:29;96429.34;;;8.81;77.06
21821;BME280;11073;48.586;12.066;2022-09-19T06:34:15;96433.31;;;8.79;77.08
21821;BME280;11073;48.586;12.066;2022-09-19T06:36:44;96440.97;;;8.82;77.27
21821;BME280;11073;48.586;12.066;2022-09-19T06:39:13;96435.94;;;8.86;77.03
21821;BME280;11073;48.586;12.066;2022-09-19T06:41:51;96441.78;;;8.82;77.09
21821;BME280;11073;48.586;12.066;2022-09-19T06:44:33;96446.34;;;8.82;77.25
21821;BME280;11073;48.586;12.066;2022-09-19T06:47:28;96451.16;;;8.80;77.10
21821;BME280;11073;48.586;12.066;2022-09-19T06:50:30;96455.75;;;8.79;77.23
21821;BME280;11073;48.586;12.066;2022-09-19T06:53:07;96459.63;;;8.83;77.23
21821;BME280;11073;48.586;12.066;2022-09-19T06:55:36;96462.31;;;8.83;77.15
21821;BME280;11073;48.586;12.066;2022-09-19T06:58:11;96471.28;;;8.84;77.25
21821;BME280;11073;48.586;12.066;2022-09-19T07:00:42;96469.41;;;8.84;77.37
21821;BME280;11073;48.586;12.066;2022-09-19T07:03:16;96471.47;;;8.82;77.35
21821;BME280;11073;48.586;12.066;2022-09-19T07:05:59;96479.13;;;8.86;77.38
21821;BME280;11073;48.586;12.066;2022-09-19T07:08:41;96481.59;;;8.87;77.48
21821;BME280;11073;48.586;12.066;2022-09-19T07:11:11;96485.13;;;8.88;77.57
21821;BME280;11073;48.586;12.066;2022-09-19T07:13:48;96493.63;;;8.91;77.52
21821;BME280;11073;48.586;12.066;2022-09-19T07:16:20;96498.09;;;8.97;77.66
21821;BME280;11073;48.586;12.066;2022-09-19T07:18:49;96504.69;;;9.01;77.39
21821;BME280;11073;48.586;12.066;2022-09-19T07:21:36;96509.84;;;9.03;77.43
21821;BME280;11073;48.586;12.066;2022-09-19T07:24:11;96509.84;;;9.03;77.32
21821;BME280;11073;48.586;12.066;2022-09-19T07:26:56;96524.56;;;9.07;77.31
21821;BME280;11073;48.586;12.066;2022-09-19T07:29:27;96524.56;;;9.07;77.40
21821;BME280;11073;48.586;12.066;2022-09-19T07:31:57;96527.84;;;9.09;77.28
21821;BME280;11073;48.586;12.066;2022-09-19T07:34:26;96529.50;;;9.10;76.99
21821;BME280;11073;48.586;12.066;2022-09-19T07:36:54;96527.41;;;9.12;77.12
21821;BME280;11073;48.586;12.066;2022-09-19T07:39:23;96524.69;;;9.12;77.18
21821;BME280;11073;48.586;12.066;2022-09-19T07:42:05;96531.88;;;9.18;77.17
21821;BME280;11073;48.586;12.066;2022-09-19T07:44:48;96541.44;;;9.21;76.99
21821;BME280;11073;48.586;12.066;2022-09-19T07:47:42;96549.06;;;9.24;77.03
21821;BME280;11073;48.586;12.066;2022-09-19T07:50:23;96541.44;;;9.21;77.23
21821;BME280;11073;48.586;12.066;2022-09-19T07:53:03;96548.16;;;9.30;77.30
21821;BME280;11073;48.586;12.066;2022-09-19T07:55:35;96561.69;;;9.30;77.12
21821;BME280;11073;48.586;12.066;2022-09-19T07:58:05;96564.97;;;9.32;77.20
21821;BME280;11073;48.586;12.066;2022-09-19T08:00:41;96573.47;;;9.35;76.97
21821;BME280;11073;48.586;12.066;2022-09-19T08:03:28;96584.03;;;9.37;77.03
21821;BME280;11073;48.586;12.066;2022-09-19T08:05:58;96584.84;;;9.37;76.98
21821;BME280;11073;48.586;12.066;2022-09-19T08:08:30;96581.91;;;9.39;77.21
21821;BME280;11073;48.586;12.066;2022-09-19T08:11:03;96581.25;;;9.44;77.15
21821;BME280;11073;48.586;12.066;2022-09-19T08:13:33;96584.94;;;9.49;76.95
21821;BME280;11073;48.586;12.066;2022-09-19T08:16:01;96604.66;;;9.50;77.18
21821;BME280;11073;48.586;12.066;2022-09-19T08:18:32;96602.16;;;9.48;77.12
21821;BME280;11073;48.586;12.066;2022-09-19T08:21:00;96604.03;;;9.48;77.01
21821;BME280;11073;48.586;12.066;2022-09-19T08:23:29;96604.28;;;9.46;77.33
21821;BME280;11073;48.586;12.066;2022-09-19T08:26:00;96612.31;;;9.53;77.06
21821;BME280;11073;48.586;12.066;2022-09-19T08:28:29;96601.25;;;9.54;77.36
21821;BME280;11073;48.586;12.066;2022-09-19T08:31:00;96597.97;;;9.52;76.92
21821;BME280;11073;48.586;12.066;2022-09-19T08:33:34;96614.53;;;9.56;77.10
21821;BME280;11073;48.586;12.066;2022-09-19T08:36:03;96625.81;;;9.53;77.19
21821;BME280;11073;48.586;12.066;2022-09-19T08:38:33;96616.28;;;9.50;77.23
21821;BME280;11073;48.586;12.066;2022-09-19T08:41:12;96620.41;;;9.53;76.97
21821;BME280;11073;48.586;12.066;2022-09-19T08:43:53;96627.03;;;9.57;77.21
21821;BME280;11073;48.586;12.066;2022-09-19T08:46:27;96619.03;;;9.62;77.13
21821;BME280;11073;48.586;12.066;2022-09-19T08:49:10;96623.09;;;9.71;77.28
21821;BME280;11073;48.586;12.066;2022-09-19T08:51:50;96633.81;;;9.78;76.91
21821;BME280;11073;48.586;12.066;2022-09-19T08:54:27;96640.50;;;9.75;76.72
21821;BME280;11073;48.586;12.066;2022-09-19T08:57:03;96639.59;;;9.81;76.79
21821;BME280;11073;48.586;12.066;2022-09-19T08:59:36;96640.78;;;9.85;76.73
21821;BME280;11073;48.586;12.066;2022-09-19T09:02:18;96640.78;;;9.85;76.64
21821;BME280;11073;48.586;12.066;2022-09-19T09:05:04;96649.50;;;9.87;76.76
21821;BME280;11073;48.586;12.066;2022-09-19T09:07:44;96643.94;;;9.82;76.42
21821;BME280;11073;48.586;12.066;2022-09-19T09:10:44;96651.00;;;9.83;76.24
21821;BME280;11073;48.586;12.066;2022-09-19T09:13:28;96654.91;;;9.87;76.47
21821;BME280;11073;48.586;12.066;2022-09-19T09:16:31;96654.31;;;9.85;76.35
21821;BME280;11073;48.586;12.066;2022-09-19T09:19:23;96660.75;;;9.84;76.27
21821;BME280;11073;48.586;12.066;2022-09-19T09:22:00;96660.31;;;9.87;76.44
21821;BME280;11073;48.586;12.066;2022-09-19T09:24:44;96652.44;;;9.86;76.54
21821;BME280;11073;48.586;12.066;2022-09-19T09:27:34;96673.28;;;9.97;76.53
21821;BME280;11073;48.586;12.066;2022-09-19T09:30:16;96660.66;;;9.91;76.34
21821;BME280;11073;48.586;12.066;2022-09-19T09:32:56;96667.44;;;9.82;76.32
21821;BME280;11073;48.586;12.066;2022-09-19T09:35:30;96677.78;;;9.85;76.40
21821;BME280;11073;48.586;12.066;2022-09-19T09:38:19;96667.22;;;9.83;76.42
21821;BME280;11073;48.586;12.066;2022-09-19T09:41:00;96674.19;;;9.91;76.31
21821;BME280;11073;48.586;12.066;2022-09-19T09:43:57;96687.19;;;10.01;76.30
21821;BME280;11073;48.586;12.066;2022-09-19T09:46:45;96680.84;;;10.07;76.46
21821;BME280;11073;48.586;12.066;2022-09-19T09:49:20;96678.66;;;10.15;76.58
21821;BME280;11073;48.586;12.066;2022-09-19T09:52:05;96686.69;;;10.22;76.14
21821;BME280;11073;48.586;12.066;2022-09-19T09:54:47;96688.59;;;10.33;76.38
21821;BME280;11073;48.586;12.066;2022-09-19T09:57:43;96686.78;;;10.45;76.44
21821;BME280;11073;48.586;12.066;2022-09-19T10:00:21;96697.25;;;10.54;76.03
21821;BME280;11073;48.586;12.066;2022-09-19T10:03:18;96703.41;;;10.61;76.27
21821;BME280;11073;48.586;12.066;2022-09-19T10:06:22;96696.88;;;10.50;75.71
21821;BME280;11073;48.586;12.066;2022-09-19T10:08:57;96700.44;;;10.51;75.92
21821;BME280;11073;48.586;12.066;2022-09-19T10:11:37;96699.81;;;10.48;75.84
21821;BME280;11073;48.586;12.066;2022-09-19T10:14:29;96706.44;;;10.53;75.85
21821;BME280;11073;48.586;12.066;2022-09-19T10:17:16;96708.44;;;10.57;75.63
21821;BME280;11073;48.586;12.066;2022-09-19T10:19:49;96687.25;;;10.54;75.74
21821;BME280;11073;48.586;12.066;2022-09-19T10:22:20;96720.31;;;10.56;75.53
21821;BME280;11073;48.586;12.066;2022-09-19T10:24:57;96716.44;;;10.52;75.53
21821;BME280;11073;48.586;12.066;2022-09-19T10:27:37;96713.97;;;10.51;75.27
21821;BME280;11073;48.586;12.066;2022-09-19T10:30:21;96716.56;;;10.57;74.95
21821;BME280;11073;48.586;12.066;2022-09-19T10:32:54;96724.72;;;10.69;75.26
21821;BME280;11073;48.586;12.066;2022-09-19T10:35:38;96719.34;;;10.81;75.05
21821;BME280;11073;48.586;12.066;2022-09-19T10:38:12;96729.81;;;11.00;74.74
21821;BME280;11073;48.586;12.066;2022-09-19T10:40:50;96732.66;;;11.05;74.28
21821;BME280;11073;48.586;12.066;2022-09-19T10:43:27;96732.78;;;11.11;74.08
21821;BME280;11073;48.586;12.066;2022-09-19T10:46:03;96733.84;;;11.10;73.92
21821;BME280;11073;48.586;12.066;2022-09-19T10:48:40;96731.59;;;11.07;73.57
21821;BME280;11073;48.586;12.066;2022-09-19T10:51:11;96734.19;;;11.13;73.36
21821;BME280;11073;48.586;12.066;2022-09-19T10:53:44;96709.94;;;10.95;73.12
21821;BME280;11073;48.586;12.066;2022-09-19T10:56:19;96737.75;;;11.25;72.93
21821;BME280;11073;48.586;12.066;2022-09-19T10:58:59;96738.91;;;11.41;72.72
21821;BME280;11073;48.586;12.066;2022-09-19T11:01:36;96739.00;;;11.70;72.50
21821;BME280;11073;48.586;12.066;2022-09-19T11:04:20;96744.53;;;11.86;72.02
21821;BME280;11073;48.586;12.066;2022-09-19T11:06:56;96735.19;;;11.94;71.78
21821;BME280;11073;48.586;12.066;2022-09-19T11:09:34;96722.59;;;12.28;71.48
21821;BME280;11073;48.586;12.066;2022-09-19T11:12:09;96719.38;;;12.60;70.98
21821;BME280;11073;48.586;12.066;2022-09-19T11:14:43;96725.25;;;12.85;70.56
21821;BME280;11073;48.586;12.066;2022-09-19T11:17:28;96713.56;;;13.35;69.65
21821;BME280;11073;48.586;12.066;2022-09-19T11:20:15;96725.28;;;13.36;68.71
21821;BME280;11073;48.586;12.066;2022-09-19T11:23:14;96713.53;;;13.91;68.08
21821;BME280;11073;48.586;12.066;2022-09-19T11:25:52;96728.31;;;14.22;67.13
21821;BME280;11073;48.586;12.066;2022-09-19T11:28:34;96728.22;;;14.39;66.31
21821;BME280;11073;48.586;12.066;2022-09-19T11:31:17;96727.34;;;14.33;65.12
21821;BME280;11073;48.586;12.066;2022-09-19T11:34:15;96718.34;;;14.32;64.43
21821;BME280;11073;48.586;12.066;2022-09-19T11:37:19;96713.38;;;14.24;63.93
21821;BME280;11073;48.586;12.066;2022-09-19T11:39:59;96719.25;;;14.38;63.40
21821;BME280;11073;48.586;12.066;2022-09-19T11:42:40;96720.06;;;14.39;63.08
21821;BME280;11073;48.586;12.066;2022-09-19T11:45:16;96716.34;;;14.23;62.41
21821;BME280;11073;48.586;12.066;2022-09-19T11:48:15;96723.59;;;14.39;62.27
21821;BME280;11073;48.586;12.066;2022-09-19T11:50:56;96724.19;;;14.19;61.16
21821;BME280;11073;48.586;12.066;2022-09-19T11:53:42;96729.78;;;14.29;61.38
21821;BME280;11073;48.586;12.066;2022-09-19T11:56:54;96720.53;;;14.84;61.28
21821;BME280;11073;48.586;12.066;2022-09-19T11:59:47;96719.91;;;15.41;60.85
21821;BME280;11073;48.586;12.066;2022-09-19T12:05:28;96709.56;;;15.86;59.16
21821;BME280;11073;48.586;12.066;2022-09-19T12:08:09;96705.66;;;15.71;58.27
21821;BME280;11073;48.586;12.066;2022-09-19T12:10:44;96708.34;;;15.61;58.18
21821;BME280;11073;48.586;12.066;2022-09-19T12:13:20;96704.47;;;16.05;57.70
21821;BME280;11073;48.586;12.066;2022-09-19T12:15:59;96700.38;;;16.07;56.92
21821;BME280;11073;48.586;12.066;2022-09-19T12:18:38;96700.38;;;16.02;56.44
21821;BME280;11073;48.586;12.066;2022-09-19T12:21:11;96709.50;;;16.33;55.99
21821;BME280;11073;48.586;12.066;2022-09-19T12:23:47;96696.16;;;16.52;55.40
21821;BME280;11073;48.586;12.066;2022-09-19T12:26:46;96698.81;;;16.37;54.50
21821;BME280;11073;48.586;12.066;2022-09-19T12:29:24;96705.19;;;16.63;54.44
21821;BME280;11073;48.586;12.066;2022-09-19T12:32:02;96701.44;;;16.84;53.95
21821;BME280;11073;48.586;12.066;2022-09-19T12:34:38;96695.34;;;16.62;53.83
21821;BME280;11073;48.586;12.066;2022-09-19T12:37:21;96694.06;;;16.90;53.62
21821;BME280;11073;48.586;12.066;2022-09-19T12:40:04;96692.69;;;16.82;52.94
21821;BME280;11073;48.586;12.066;2022-09-19T12:42:45;96689.13;;;16.81;52.54
21821;BME280;11073;48.586;12.066;2022-09-19T12:45:22;96685.50;;;16.55;52.28
21821;BME280;11073;48.586;12.066;2022-09-19T12:47:59;96675.09;;;16.37;51.98
21821;BME280;11073;48.586;12.066;2022-09-19T12:50:50;96681.13;;;16.44;52.21
21821;BME280;11073;48.586;12.066;2022-09-19T12:53:30;96666.66;;;16.64;51.88
21821;BME280;11073;48.586;12.066;2022-09-19T12:56:04;96683.31;;;16.52;52.00
21821;BME280;11073;48.586;12.066;2022-09-19T12:58:49;96675.72;;;17.05;51.92
21821;BME280;11073;48.586;12.066;2022-09-19T13:01:23;96680.63;;;17.08;51.18
21821;BME280;11073;48.586;12.066;2022-09-19T13:03:56;96683.91;;;17.46;50.97
21821;BME280;11073;48.586;12.066;2022-09-19T13:06:33;96687.19;;;17.33;50.22
21821;BME280;11073;48.586;12.066;2022-09-19T13:09:16;96672.41;;;16.68;49.86
21821;BME280;11073;48.586;12.066;2022-09-19T13:11:52;96669.97;;;16.76;50.37
21821;BME280;11073;48.586;12.066;2022-09-19T13:14:26;96672.97;;;17.21;50.25
21821;BME280;11073;48.586;12.066;2022-09-19T13:17:02;96676.78;;;17.30;49.99
21821;BME280;11073;48.586;12.066;2022-09-19T13:19:51;96668.59;;;16.94;49.85
21821;BME280;11073;48.586;12.066;2022-09-19T13:22:46;96671.63;;;17.08;49.69
21821;BME280;11073;48.586;12.066;2022-09-19T13:25:37;96676.00;;;16.73;49.42
21821;BME280;11073;48.586;12.066;2022-09-19T13:28:29;96669.34;;;16.39;49.57
21821;BME280;11073;48.586;12.066;2022-09-19T13:31:10;96679.34;;;16.08;49.92
21821;BME280;11073;48.586;12.066;2022-09-19T13:33:43;96674.94;;;15.96;50.28
21821;BME280;11073;48.586;12.066;2022-09-19T13:36:14;96671.31;;;15.76;50.55
21821;BME280;11073;48.586;12.066;2022-09-19T13:38:45;96663.84;;;15.61;50.87
21821;BME280;11073;48.586;12.066;2022-09-19T13:41:21;96674.75;;;15.61;51.25
21821;BME280;11073;48.586;12.066;2022-09-19T13:44:02;96675.00;;;16.12;51.48
21821;BME280;11073;48.586;12.066;2022-09-19T13:46:38;96668.84;;;16.62;50.90
21821;BME280;11073;48.586;12.066;2022-09-19T13:49:12;96667.53;;;16.75;50.35
21821;BME280;11073;48.586;12.066;2022-09-19T13:51:52;96658.97;;;16.56;49.87
21821;BME280;11073;48.586;12.066;2022-09-19T13:54:35;96653.72;;;16.29;49.86
21821;BME280;11073;48.586;12.066;2022-09-19T13:57:17;96679.91;;;16.10;49.97
21821;BME280;11073;48.586;12.066;2022-09-19T13:59:50;96666.97;;;15.85;50.05